sensor_id;sensor_type;location;lat;lon;timestamp;pressure;altitude;pressure_sealevel;temperature;humidity
13709;BME280;54933;51.908;7.730;2023-09-07T00:01:32;101431.59;;;24.87;84.82
13709;BME280;54933;51.908;7.730;2023-09-07T00:03:57;101434.31;;;24.87;84.51
13709;BME280;54933;51.908;7.730;2023-09-07T00:06:23;101429.72;;;24.87;84.50
13709;BME280;54933;51.908;7.730;2023-09-07T00:08:48;101435.16;;;24.87;84.93
13709;BME280;54933;51.908;7.730;2023-09-07T00:11:13;101429.94;;;24.86;84.60
13709;BME280;54933;51.908;7.730;2023-09-07T00:13:39;101428.88;;;24.87;84.57
13709;BME280;54933;51.908;7.730;2023-09-07T00:16:05;101428.88;;;24.87;84.52
13709;BME280;54933;51.908;7.730;2023-09-07T00:18:30;101423.44;;;24.87;84.52
13709;BME280;54933;51.908;7.730;2023-09-07T00:20:56;101419.91;;;24.86;84.72
13709;BME280;54933;51.908;7.730;2023-09-07T00:23:21;101426.16;;;24.87;84.30
13709;BME280;54933;51.908;7.730;2023-09-07T00:25:47;101431.59;;;24.87;84.43
13709;BME280;54933;51.908;7.730;2023-09-07T00:28:12;101434.31;;;24.87;84.30
13709;BME280;54933;51.908;7.730;2023-09-07T00:30:38;101430.56;;;24.88;84.28
13709;BME280;54933;51.908;7.730;2023-09-07T00:33:04;101434.31;;;24.87;84.38
13709;BME280;54933;51.908;7.730;2023-09-07T00:35:29;101435.16;;;24.87;84.48
13709;BME280;54933;51.908;7.730;2023-09-07T00:37:54;101435.16;;;24.87;84.38
13709;BME280;54933;51.908;7.730;2023-09-07T00:40:20;101428.06;;;24.86;84.36
13709;BME280;54933;51.908;7.730;2023-09-07T00:42:45;101429.94;;;24.86;84.20
13709;BME280;54933;51.908;7.730;2023-09-07T00:45:11;101425.34;;;24.86;84.38
13709;BME280;54933;51.908;7.730;2023-09-07T00:47:36;101418.00;;;24.87;84.29
13709;BME280;54933;51.908;7.730;2023-09-07T00:50:03;101428.06;;;24.86;84.36
13709;BME280;54933;51.908;7.730;2023-09-07T00:52:29;101427.22;;;24.86;84.04
13709;BME280;54933;51.908;7.730;2023-09-07T00:54:55;101426.16;;;24.87;84.34
13709;BME280;54933;51.908;7.730;2023-09-07T00:57:20;101429.09;;;24.85;84.11
13709;BME280;54933;51.908;7.730;2023-09-07T00:59:46;101432.66;;;24.86;84.24
13709;BME280;54933;51.908;7.730;2023-09-07T01:02:11;101428.25;;;24.85;84.27
13709;BME280;54933;51.908;7.730;2023-09-07T01:04:36;101433.69;;;24.85;84.37
13709;BME280;54933;51.908;7.730;2023-09-07T01:07:13;101429.34;;;24.84;84.07
13709;BME280;54933;51.908;7.730;2023-09-07T01:09:40;101427.44;;;24.84;84.18
13709;BME280;54933;51.908;7.730;2023-09-07T01:12:07;101431.81;;;24.85;84.33
13709;BME280;54933;51.908;7.730;2023-09-07T01:14:36;101426.38;;;24.85;84.13
13709;BME280;54933;51.908;7.730;2023-09-07T01:17:01;101425.53;;;24.85;84.15
13709;BME280;54933;51.908;7.730;2023-09-07T01:19:27;101427.44;;;24.84;84.36
13709;BME280;54933;51.908;7.730;2023-09-07T01:21:52;101420.09;;;24.85;84.19
13709;BME280;54933;51.908;7.730;2023-09-07T01:24:18;101418.22;;;24.85;84.15
13709;BME280;54933;51.908;7.730;2023-09-07T01:26:44;101415.72;;;24.84;84.03
13709;BME280;54933;51.908;7.730;2023-09-07T01:29:14;101410.28;;;24.84;84.07
13709;BME280;54933;51.908;7.730;2023-09-07T01:31:39;101413.03;;;24.84;84.08
13709;BME280;54933;51.908;7.730;2023-09-07T01:34:05;101402.97;;;24.84;84.27
13709;BME280;54933;51.908;7.730;2023-09-07T01:36:31;101409.22;;;24.85;84.23
13709;BME280;54933;51.908;7.730;2023-09-07T01:38:57;101404.88;;;24.84;84.44
13709;BME280;54933;51.908;7.730;2023-09-07T01:41:23;101402.97;;;24.84;84.36
13709;BME280;54933;51.908;7.730;2023-09-07T01:43:48;101413.03;;;24.84;84.28
13709;BME280;54933;51.908;7.730;2023-09-07T01:46:13;101406.50;;;24.85;84.07
13709;BME280;54933;51.908;7.730;2023-09-07T01:48:38;101411.94;;;24.85;84.17
13709;BME280;54933;51.908;7.730;2023-09-07T01:51:04;101403.78;;;24.85;84.22
13709;BME280;54933;51.908;7.730;2023-09-07T01:53:29;101414.66;;;24.85;84.15
13709;BME280;54933;51.908;7.730;2023-09-07T01:55:54;101407.59;;;24.84;84.12
13709;BME280;54933;51.908;7.730;2023-09-07T01:58:21;101414.66;;;24.85;84.17
13709;BME280;54933;51.908;7.730;2023-09-07T02:00:46;101409.22;;;24.85;84.50
13709;BME280;54933;51.908;7.730;2023-09-07T02:03:11;101413.63;;;24.86;84.19
13709;BME280;54933;51.908;7.730;2023-09-07T02:05:36;101413.84;;;24.84;84.02
13709;BME280;54933;51.908;7.730;2023-09-07T02:08:02;101408.41;;;24.84;84.15
13709;BME280;54933;51.908;7.730;2023-09-07T02:10:29;101419.06;;;24.86;84.17
13709;BME280;54933;51.908;7.730;2023-09-07T02:12:55;101412.19;;;24.83;84.02
13709;BME280;54933;51.908;7.730;2023-09-07T02:15:23;101404.88;;;24.84;84.18
13709;BME280;54933;51.908;7.730;2023-09-07T02:17:48;101408.41;;;24.84;83.95
13709;BME280;54933;51.908;7.730;2023-09-07T02:20:13;101402.13;;;24.84;83.96
13709;BME280;54933;51.908;7.730;2023-09-07T02:22:39;101402.13;;;24.84;84.13
13709;BME280;54933;51.908;7.730;2023-09-07T02:25:05;101396.72;;;24.84;83.83
13709;BME280;54933;51.908;7.730;2023-09-07T02:27:32;101404.88;;;24.84;84.06
13709;BME280;54933;51.908;7.730;2023-09-07T02:29:57;101407.59;;;24.84;84.12
13709;BME280;54933;51.908;7.730;2023-09-07T02:32:23;101406.75;;;24.83;83.93
13709;BME280;54933;51.908;7.730;2023-09-07T02:34:48;101403.22;;;24.83;83.73
13709;BME280;54933;51.908;7.730;2023-09-07T02:37:13;101400.50;;;24.83;83.82
13709;BME280;54933;51.908;7.730;2023-09-07T02:39:40;101410.28;;;24.84;83.88
13709;BME280;54933;51.908;7.730;2023-09-07T02:42:05;101400.50;;;24.83;83.90
13709;BME280;54933;51.908;7.730;2023-09-07T02:44:31;101400.72;;;24.81;83.74
13709;BME280;54933;51.908;7.730;2023-09-07T02:46:57;101394.44;;;24.81;83.70
13709;BME280;54933;51.908;7.730;2023-09-07T02:49:22;101394.44;;;24.81;83.55
13709;BME280;54933;51.908;7.730;2023-09-07T02:51:48;101396.31;;;24.80;83.88
13709;BME280;54933;51.908;7.730;2023-09-07T02:54:13;101399.28;;;24.79;83.51
13709;BME280;54933;51.908;7.730;2023-09-07T02:56:38;101399.88;;;24.81;83.85
13709;BME280;54933;51.908;7.730;2023-09-07T02:59:03;101389.25;;;24.79;83.43
13709;BME280;54933;51.908;7.730;2023-09-07T03:01:30;101389.25;;;24.79;83.49
13709;BME280;54933;51.908;7.730;2023-09-07T03:03:55;101390.06;;;24.80;83.65
13709;BME280;54933;51.908;7.730;2023-09-07T03:06:21;101385.69;;;24.79;83.55
13709;BME280;54933;51.908;7.730;2023-09-07T03:08:46;101382.97;;;24.79;83.40
13709;BME280;54933;51.908;7.730;2023-09-07T03:11:11;101382.97;;;24.79;83.65
13709;BME280;54933;51.908;7.730;2023-09-07T03:13:37;101381.31;;;24.78;83.53
13709;BME280;54933;51.908;7.730;2023-09-07T03:16:04;101374.19;;;24.77;83.55
13709;BME280;54933;51.908;7.730;2023-09-07T03:18:30;101397.63;;;24.78;83.59
13709;BME280;54933;51.908;7.730;2023-09-07T03:20:59;101390.50;;;24.77;83.37
13709;BME280;54933;51.908;7.730;2023-09-07T03:23:24;101395.94;;;24.77;83.25
13709;BME280;54933;51.908;7.730;2023-09-07T03:25:50;101397.63;;;24.78;83.33
13709;BME280;54933;51.908;7.730;2023-09-07T03:28:15;101393.84;;;24.79;83.42
13709;BME280;54933;51.908;7.730;2023-09-07T03:30:40;101394.69;;;24.79;83.44
13709;BME280;54933;51.908;7.730;2023-09-07T03:33:06;101400.94;;;24.80;83.49
13709;BME280;54933;51.908;7.730;2023-09-07T03:35:32;101400.94;;;24.80;83.41
13709;BME280;54933;51.908;7.730;2023-09-07T03:37:57;101399.28;;;24.79;83.31
13709;BME280;54933;51.908;7.730;2023-09-07T03:40:22;101403.66;;;24.80;83.37
13709;BME280;54933;51.908;7.730;2023-09-07T03:42:48;101399.28;;;24.79;83.43
13709;BME280;54933;51.908;7.730;2023-09-07T03:45:13;101399.28;;;24.79;83.21
13709;BME280;54933;51.908;7.730;2023-09-07T03:47:38;101408.25;;;24.79;83.42
13709;BME280;54933;51.908;7.730;2023-09-07T03:50:04;101409.09;;;24.80;83.34
13709;BME280;54933;51.908;7.730;2023-09-07T03:52:30;101404.72;;;24.79;83.35
13709;BME280;54933;51.908;7.730;2023-09-07T03:54:56;101400.94;;;24.80;83.33
13709;BME280;54933;51.908;7.730;2023-09-07T03:57:22;101399.28;;;24.79;83.42
13709;BME280;54933;51.908;7.730;2023-09-07T03:59:47;101401.16;;;24.78;83.38
13709;BME280;54933;51.908;7.730;2023-09-07T04:02:13;101401.75;;;24.80;82.92
13709;BME280;54933;51.908;7.730;2023-09-07T04:04:38;101398.44;;;24.78;83.50
13709;BME280;54933;51.908;7.730;2023-09-07T04:07:04;101398.44;;;24.78;83.21
13709;BME280;54933;51.908;7.730;2023-09-07T04:09:29;101393.84;;;24.79;83.25
13709;BME280;54933;51.908;7.730;2023-09-07T04:11:54;101404.56;;;24.74;83.49
13709;BME280;54933;51.908;7.730;2023-09-07T04:14:20;101396.84;;;24.71;83.69
13709;BME280;54933;51.908;7.730;2023-09-07T04:16:45;101401.69;;;24.69;83.97
13709;BME280;54933;51.908;7.730;2023-09-07T04:19:10;101406.50;;;24.67;84.15
13709;BME280;54933;51.908;7.730;2023-09-07T04:21:36;101404.81;;;24.66;84.46
13709;BME280;54933;51.908;7.730;2023-09-07T04:24:02;101405.66;;;24.66;84.25
13709;BME280;54933;51.908;7.730;2023-09-07T04:26:27;101405.88;;;24.65;84.34
13709;BME280;54933;51.908;7.730;2023-09-07T04:28:52;101404.81;;;24.66;84.39
13709;BME280;54933;51.908;7.730;2023-09-07T04:31:18;101401.50;;;24.64;84.80
13709;BME280;54933;51.908;7.730;2023-09-07T04:33:43;101402.34;;;24.64;84.76
13709;BME280;54933;51.908;7.730;2023-09-07T04:36:13;101407.53;;;24.66;84.78
13709;BME280;54933;51.908;7.730;2023-09-07T04:38:40;101403.16;;;24.65;84.63
13709;BME280;54933;51.908;7.730;2023-09-07T04:41:10;101403.16;;;24.65;84.71
13709;BME280;54933;51.908;7.730;2023-09-07T04:43:36;101405.03;;;24.64;84.49
13709;BME280;54933;51.908;7.730;2023-09-07T04:46:02;101407.75;;;24.64;84.60
13709;BME280;54933;51.908;7.730;2023-09-07T04:48:28;101408.59;;;24.65;84.64
13709;BME280;54933;51.908;7.730;2023-09-07T04:51:04;101409.22;;;24.67;84.89
13709;BME280;54933;51.908;7.730;2023-09-07T04:53:32;101415.91;;;24.64;84.68
13709;BME280;54933;51.908;7.730;2023-09-07T04:55:58;101412.97;;;24.66;84.53
13709;BME280;54933;51.908;7.730;2023-09-07T04:58:24;101420.09;;;24.67;84.63
13709;BME280;54933;51.908;7.730;2023-09-07T05:00:49;101420.09;;;24.67;84.41
13709;BME280;54933;51.908;7.730;2023-09-07T05:03:14;101413.81;;;24.66;84.42
13709;BME280;54933;51.908;7.730;2023-09-07T05:05:41;101411.94;;;24.67;84.43
13709;BME280;54933;51.908;7.730;2023-09-07T05:08:07;101416.34;;;24.68;84.58
13709;BME280;54933;51.908;7.730;2023-09-07T05:10:35;101411.94;;;24.67;84.33
13709;BME280;54933;51.908;7.730;2023-09-07T05:13:01;101407.84;;;24.58;83.77
13709;BME280;54933;51.908;7.730;2023-09-07T05:15:26;101412.00;;;24.60;83.59
13709;BME280;54933;51.908;7.730;2023-09-07T05:17:52;101408.22;;;24.61;83.14
13709;BME280;54933;51.908;7.730;2023-09-07T05:20:18;101410.09;;;24.61;83.05
13709;BME280;54933;51.908;7.730;2023-09-07T05:22:43;101414.50;;;24.62;82.75
13709;BME280;54933;51.908;7.730;2023-09-07T05:25:09;101409.88;;;24.62;82.74
13709;BME280;54933;51.908;7.730;2023-09-07T05:27:35;101410.72;;;24.63;82.76
13709;BME280;54933;51.908;7.730;2023-09-07T05:30:01;101420.47;;;24.28;82.00
13709;BME280;54933;51.908;7.730;2023-09-07T05:32:27;101415.97;;;24.40;81.39
13709;BME280;54933;51.908;7.730;2023-09-07T05:34:52;101414.63;;;24.49;81.39
13709;BME280;54933;51.908;7.730;2023-09-07T05:37:17;101408.75;;;24.52;80.88
13709;BME280;54933;51.908;7.730;2023-09-07T05:39:42;101410.41;;;24.53;80.70
13709;BME280;54933;51.908;7.730;2023-09-07T05:42:08;101417.50;;;24.54;80.42
13709;BME280;54933;51.908;7.730;2023-09-07T05:44:33;101413.34;;;24.51;80.81
13709;BME280;54933;51.908;7.730;2023-09-07T05:46:58;101418.84;;;24.45;80.96
13709;BME280;54933;51.908;7.730;2023-09-07T05:49:24;101432.53;;;23.76;79.02
13709;BME280;54933;51.908;7.730;2023-09-07T05:51:49;101433.00;;;23.22;77.73
13709;BME280;54933;51.908;7.730;2023-09-07T05:54:15;101428.38;;;23.73;77.86
13709;BME280;54933;51.908;7.730;2023-09-07T05:56:40;101439.84;;;24.06;77.21
13709;BME280;54933;51.908;7.730;2023-09-07T05:59:05;101442.47;;;24.20;77.27
13709;BME280;54933;51.908;7.730;2023-09-07T06:01:31;101444.09;;;24.27;77.22
13709;BME280;54933;51.908;7.730;2023-09-07T06:03:57;101439.84;;;24.31;77.58
13709;BME280;54933;51.908;7.730;2023-09-07T06:06:23;101442.97;;;24.35;77.53
13709;BME280;54933;51.908;7.730;2023-09-07T06:08:48;101443.56;;;24.37;77.92
13709;BME280;54933;51.908;7.730;2023-09-07T06:11:14;101446.06;;;24.38;78.23
13709;BME280;54933;51.908;7.730;2023-09-07T06:13:39;101457.56;;;24.40;78.20
13709;BME280;54933;51.908;7.730;2023-09-07T06:16:04;101450.00;;;24.42;78.67
13709;BME280;54933;51.908;7.730;2023-09-07T06:18:30;101447.06;;;24.44;78.95
13709;BME280;54933;51.908;7.730;2023-09-07T06:20:55;101451.44;;;24.45;79.19
13709;BME280;54933;51.908;7.730;2023-09-07T06:23:20;101446.63;;;24.47;79.44
13709;BME280;54933;51.908;7.730;2023-09-07T06:25:46;101444.75;;;24.47;79.13
13709;BME280;54933;51.908;7.730;2023-09-07T06:28:11;101440.13;;;24.48;79.51
13709;BME280;54933;51.908;7.730;2023-09-07T06:30:36;101439.31;;;24.47;79.68
13709;BME280;54933;51.908;7.730;2023-09-07T06:33:02;101447.25;;;24.49;79.75
13709;BME280;54933;51.908;7.730;2023-09-07T06:35:27;101443.44;;;24.50;79.83
13709;BME280;54933;51.908;7.730;2023-09-07T06:37:52;101449.72;;;24.50;79.89
13709;BME280;54933;51.908;7.730;2023-09-07T06:40:18;101442.38;;;24.51;80.00
13709;BME280;54933;51.908;7.730;2023-09-07T06:42:44;101445.94;;;24.51;80.10
13709;BME280;54933;51.908;7.730;2023-09-07T06:45:09;101441.34;;;24.52;80.36
13709;BME280;54933;51.908;7.730;2023-09-07T06:47:35;101443.00;;;24.53;80.38
13709;BME280;54933;51.908;7.730;2023-09-07T06:50:02;101453.88;;;24.53;80.28
13709;BME280;54933;51.908;7.730;2023-09-07T06:52:27;101443.00;;;24.53;80.39
13709;BME280;54933;51.908;7.730;2023-09-07T06:54:53;101439.25;;;24.54;80.52
13709;BME280;54933;51.908;7.730;2023-09-07T06:57:19;101437.56;;;24.53;80.37
13709;BME280;54933;51.908;7.730;2023-09-07T06:59:44;101440.91;;;24.55;80.63
13709;BME280;54933;51.908;7.730;2023-09-07T07:02:09;101443.63;;;24.55;80.52
13709;BME280;54933;51.908;7.730;2023-09-07T07:04:35;101447.19;;;24.55;80.56
13709;BME280;54933;51.908;7.730;2023-09-07T07:07:00;101447.19;;;24.55;80.13
13709;BME280;54933;51.908;7.730;2023-09-07T07:09:30;101450.47;;;24.57;80.70
13709;BME280;54933;51.908;7.730;2023-09-07T07:11:55;101457.19;;;24.55;80.83
13709;BME280;54933;51.908;7.730;2023-09-07T07:14:20;101457.19;;;24.55;80.79
13709;BME280;54933;51.908;7.730;2023-09-07T07:16:46;101456.59;;;24.53;80.98
13709;BME280;54933;51.908;7.730;2023-09-07T07:19:11;101459.31;;;24.53;81.02
13709;BME280;54933;51.908;7.730;2023-09-07T07:21:36;101457.66;;;24.52;81.11
13709;BME280;54933;51.908;7.730;2023-09-07T07:24:02;101453.88;;;24.53;81.33
13709;BME280;54933;51.908;7.730;2023-09-07T07:26:27;101461.19;;;24.52;81.20
13709;BME280;54933;51.908;7.730;2023-09-07T07:28:52;101464.75;;;24.53;81.37
13709;BME280;54933;51.908;7.730;2023-09-07T07:31:17;101458.47;;;24.52;81.39
13709;BME280;54933;51.908;7.730;2023-09-07T07:33:43;101455.56;;;24.54;81.32
13709;BME280;54933;51.908;7.730;2023-09-07T07:36:08;101465.34;;;24.55;81.45
13709;BME280;54933;51.908;7.730;2023-09-07T07:38:34;101468.06;;;24.55;81.35
13709;BME280;54933;51.908;7.730;2023-09-07T07:41:00;101453.41;;;24.56;81.22
13709;BME280;54933;51.908;7.730;2023-09-07T07:43:25;101462.63;;;24.55;81.27
13709;BME280;54933;51.908;7.730;2023-09-07T07:45:54;101466.19;;;24.55;81.46
13709;BME280;54933;51.908;7.730;2023-09-07T07:48:19;101463.25;;;24.57;81.43
13709;BME280;54933;51.908;7.730;2023-09-07T07:50:45;101461.56;;;24.56;81.50
13709;BME280;54933;51.908;7.730;2023-09-07T07:53:10;101453.41;;;24.56;81.48
13709;BME280;54933;51.908;7.730;2023-09-07T07:55:39;101454.25;;;24.56;81.50
13709;BME280;54933;51.908;7.730;2023-09-07T07:58:06;101463.25;;;24.57;81.43
13709;BME280;54933;51.908;7.730;2023-09-07T08:00:33;101458.03;;;24.55;81.57
13709;BME280;54933;51.908;7.730;2023-09-07T08:02:59;101472.44;;;24.56;81.58
13709;BME280;54933;51.908;7.730;2023-09-07T08:05:25;101462.63;;;24.55;81.92
13709;BME280;54933;51.908;7.730;2023-09-07T08:07:50;101475.16;;;24.56;81.80
13709;BME280;54933;51.908;7.730;2023-09-07T08:10:18;101475.16;;;24.56;82.13
13709;BME280;54933;51.908;7.730;2023-09-07T08:12:43;101469.72;;;24.56;81.63
13709;BME280;54933;51.908;7.730;2023-09-07T08:15:09;101467.84;;;24.56;82.12
13709;BME280;54933;51.908;7.730;2023-09-07T08:17:34;101465.13;;;24.56;82.09
13709;BME280;54933;51.908;7.730;2023-09-07T08:20:00;101465.97;;;24.57;81.98
13709;BME280;54933;51.908;7.730;2023-09-07T08:22:25;101460.53;;;24.57;82.41
13709;BME280;54933;51.908;7.730;2023-09-07T08:24:52;101464.06;;;24.57;82.22
13709;BME280;54933;51.908;7.730;2023-09-07T08:27:19;101472.00;;;24.59;82.14
13709;BME280;54933;51.908;7.730;2023-09-07T08:29:44;101464.91;;;24.58;82.25
13709;BME280;54933;51.908;7.730;2023-09-07T08:32:13;101463.72;;;24.54;82.40
13709;BME280;54933;51.908;7.730;2023-09-07T08:34:39;101473.13;;;24.51;82.53
13709;BME280;54933;51.908;7.730;2023-09-07T08:37:06;101464.97;;;24.51;82.42
13709;BME280;54933;51.908;7.730;2023-09-07T08:39:34;101458.69;;;24.51;82.71
13709;BME280;54933;51.908;7.730;2023-09-07T08:41:59;101461.00;;;24.54;82.88
13709;BME280;54933;51.908;7.730;2023-09-07T08:44:26;101456.59;;;24.53;82.66
13709;BME280;54933;51.908;7.730;2023-09-07T08:46:52;101455.56;;;24.54;82.77
13709;BME280;54933;51.908;7.730;2023-09-07T08:49:18;101450.13;;;24.54;82.88
13709;BME280;54933;51.908;7.730;2023-09-07T08:51:44;101461.00;;;24.54;82.88
13709;BME280;54933;51.908;7.730;2023-09-07T08:54:11;101447.41;;;24.54;83.02
13709;BME280;54933;51.908;7.730;2023-09-07T08:56:37;101443.63;;;24.55;82.92
13709;BME280;54933;51.908;7.730;2023-09-07T08:59:02;101442.56;;;24.56;82.96
13709;BME280;54933;51.908;7.730;2023-09-07T09:01:29;101444.22;;;24.57;82.95
13709;BME280;54933;51.908;7.730;2023-09-07T09:03:56;101438.78;;;24.57;82.87
13709;BME280;54933;51.908;7.730;2023-09-07T09:06:22;101442.56;;;24.56;83.08
13709;BME280;54933;51.908;7.730;2023-09-07T09:08:52;101442.16;;;24.52;82.78
13709;BME280;54933;51.908;7.730;2023-09-07T09:11:19;101438.41;;;24.53;83.10
13709;BME280;54933;51.908;7.730;2023-09-07T09:13:45;101433.81;;;24.54;82.93
13709;BME280;54933;51.908;7.730;2023-09-07T09:16:10;101432.13;;;24.53;83.02
13709;BME280;54933;51.908;7.730;2023-09-07T09:18:36;101429.41;;;24.53;83.27
13709;BME280;54933;51.908;7.730;2023-09-07T09:21:03;101429.41;;;24.53;83.15
13709;BME280;54933;51.908;7.730;2023-09-07T09:23:36;101426.69;;;24.53;83.12
13709;BME280;54933;51.908;7.730;2023-09-07T09:26:02;101429.19;;;24.54;83.04
13709;BME280;54933;51.908;7.730;2023-09-07T09:28:30;101427.31;;;24.55;83.06
13709;BME280;54933;51.908;7.730;2023-09-07T09:30:58;101420.00;;;24.55;83.24
13709;BME280;54933;51.908;7.730;2023-09-07T09:33:23;101428.97;;;24.56;82.99
13709;BME280;54933;51.908;7.730;2023-09-07T09:35:50;101425.22;;;24.57;83.05
13709;BME280;54933;51.908;7.730;2023-09-07T09:38:16;101421.66;;;24.56;83.12
13709;BME280;54933;51.908;7.730;2023-09-07T09:40:42;101424.13;;;24.58;83.15
13709;BME280;54933;51.908;7.730;2023-09-07T09:43:08;101418.72;;;24.58;82.99
13709;BME280;54933;51.908;7.730;2023-09-07T09:45:34;101425.78;;;24.59;83.18
13709;BME280;54933;51.908;7.730;2023-09-07T09:48:01;101426.63;;;24.59;82.93
13709;BME280;54933;51.908;7.730;2023-09-07T09:50:26;101424.75;;;24.60;82.96
13709;BME280;54933;51.908;7.730;2023-09-07T09:52:52;101423.06;;;24.59;83.06
13709;BME280;54933;51.908;7.730;2023-09-07T09:55:21;101416.44;;;24.55;82.94
13709;BME280;54933;51.908;7.730;2023-09-07T09:57:47;101415.81;;;24.53;83.29
13709;BME280;54933;51.908;7.730;2023-09-07T10:00:13;101418.78;;;24.51;83.45
13709;BME280;54933;51.908;7.730;2023-09-07T10:03:07;101415.22;;;24.51;83.42
13709;BME280;54933;51.908;7.730;2023-09-07T10:05:36;101413.34;;;24.51;83.54
13709;BME280;54933;51.908;7.730;2023-09-07T10:08:03;101415.00;;;24.52;83.70
13709;BME280;54933;51.908;7.730;2023-09-07T10:10:36;101413.13;;;24.53;83.46
13709;BME280;54933;51.908;7.730;2023-09-07T10:13:02;101412.06;;;24.54;83.55
13709;BME280;54933;51.908;7.730;2023-09-07T10:15:28;101413.72;;;24.55;83.65
13709;BME280;54933;51.908;7.730;2023-09-07T10:18:08;101413.50;;;24.56;83.78
13709;BME280;54933;51.908;7.730;2023-09-07T10:23:15;101396.97;;;24.58;83.45
13709;BME280;54933;51.908;7.730;2023-09-07T10:25:40;101408.69;;;24.58;83.89
13709;BME280;54933;51.908;7.730;2023-09-07T10:28:17;101400.28;;;24.60;83.57
13709;BME280;54933;51.908;7.730;2023-09-07T10:30:42;101396.50;;;24.61;83.49
13709;BME280;54933;51.908;7.730;2023-09-07T10:33:19;101400.91;;;24.62;83.42
13709;BME280;54933;51.908;7.730;2023-09-07T10:35:44;101387.31;;;24.62;83.47
13709;BME280;54933;51.908;7.730;2023-09-07T10:38:13;101394.41;;;24.63;83.55
13709;BME280;54933;51.908;7.730;2023-09-07T10:40:39;101393.34;;;24.64;83.44
13709;BME280;54933;51.908;7.730;2023-09-07T10:43:04;101386.03;;;24.64;82.84
13709;BME280;54933;51.908;7.730;2023-09-07T10:45:30;101379.75;;;24.64;83.42
13709;BME280;54933;51.908;7.730;2023-09-07T10:47:55;101378.09;;;24.63;83.65
13709;BME280;54933;51.908;7.730;2023-09-07T10:50:20;101381.88;;;24.62;83.44
13709;BME280;54933;51.908;7.730;2023-09-07T10:52:46;101384.84;;;24.60;83.63
13709;BME280;54933;51.908;7.730;2023-09-07T10:55:11;101379.81;;;24.57;83.84
13709;BME280;54933;51.908;7.730;2023-09-07T10:57:43;101375.69;;;24.55;84.09
13709;BME280;54933;51.908;7.730;2023-09-07T11:00:10;101381.97;;;24.55;84.18
13709;BME280;54933;51.908;7.730;2023-09-07T11:02:39;101376.53;;;24.55;84.20
13709;BME280;54933;51.908;7.730;2023-09-07T11:05:05;101372.97;;;24.55;84.24
13709;BME280;54933;51.908;7.730;2023-09-07T11:07:31;101369.78;;;24.58;84.22
13709;BME280;54933;51.908;7.730;2023-09-07T11:09:57;101374.38;;;24.57;84.12
13709;BME280;54933;51.908;7.730;2023-09-07T11:12:23;101368.16;;;24.57;84.01
13709;BME280;54933;51.908;7.730;2023-09-07T11:14:48;101368.16;;;24.57;84.05
13709;BME280;54933;51.908;7.730;2023-09-07T11:17:13;101362.72;;;24.57;84.00
13709;BME280;54933;51.908;7.730;2023-09-07T11:19:38;101369.78;;;24.58;84.21
13709;BME280;54933;51.908;7.730;2023-09-07T11:22:04;101366.00;;;24.59;84.11
13709;BME280;54933;51.908;7.730;2023-09-07T11:24:30;101367.69;;;24.60;84.12
13709;BME280;54933;51.908;7.730;2023-09-07T11:26:57;101361.41;;;24.59;83.87
13709;BME280;54933;51.908;7.730;2023-09-07T11:29:22;101358.47;;;24.61;84.05
13709;BME280;54933;51.908;7.730;2023-09-07T11:31:48;101353.03;;;24.61;84.27
13709;BME280;54933;51.908;7.730;2023-09-07T11:34:14;101357.19;;;24.63;83.89
13709;BME280;54933;51.908;7.730;2023-09-07T11:36:41;101352.56;;;24.64;83.92
13709;BME280;54933;51.908;7.730;2023-09-07T11:39:06;101351.75;;;24.63;83.83
13709;BME280;54933;51.908;7.730;2023-09-07T11:41:44;101354.47;;;24.63;83.95
13709;BME280;54933;51.908;7.730;2023-09-07T11:44:10;101352.22;;;24.60;84.03
13709;BME280;54933;51.908;7.730;2023-09-07T11:46:36;101350.94;;;24.63;84.06
13709;BME280;54933;51.908;7.730;2023-09-07T11:49:01;101341.34;;;24.60;83.92
13709;BME280;54933;51.908;7.730;2023-09-07T11:51:27;101345.09;;;24.59;84.40
13709;BME280;54933;51.908;7.730;2023-09-07T11:53:52;101346.56;;;24.62;84.26
13709;BME280;54933;51.908;7.730;2023-09-07T11:56:17;101346.56;;;24.62;84.27
13709;BME280;54933;51.908;7.730;2023-09-07T11:58:43;101336.72;;;24.61;84.36
13709;BME280;54933;51.908;7.730;2023-09-07T12:01:09;101337.56;;;24.61;84.48
13709;BME280;54933;51.908;7.730;2023-09-07T12:03:34;101329.41;;;24.61;84.37
13709;BME280;54933;51.908;7.730;2023-09-07T12:06:00;101331.06;;;24.62;84.38
13709;BME280;54933;51.908;7.730;2023-09-07T12:08:25;101323.38;;;24.59;84.52
13709;BME280;54933;51.908;7.730;2023-09-07T12:10:51;101323.59;;;24.58;84.60
13709;BME280;54933;51.908;7.730;2023-09-07T12:13:16;101329.03;;;24.58;84.87
13709;BME280;54933;51.908;7.730;2023-09-07T12:15:41;101326.31;;;24.58;84.60
13709;BME280;54933;51.908;7.730;2023-09-07T12:18:06;101333.41;;;24.59;84.99
13709;BME280;54933;51.908;7.730;2023-09-07T12:20:32;101329.63;;;24.60;84.96
13709;BME280;54933;51.908;7.730;2023-09-07T12:23:00;101326.69;;;24.61;84.56
13709;BME280;54933;51.908;7.730;2023-09-07T12:25:25;101326.69;;;24.61;84.86
13709;BME280;54933;51.908;7.730;2023-09-07T12:27:50;101331.28;;;24.61;84.74
13709;BME280;54933;51.908;7.730;2023-09-07T12:30:15;101323.97;;;24.61;84.74
13709;BME280;54933;51.908;7.730;2023-09-07T12:32:43;101323.97;;;24.61;84.77
13709;BME280;54933;51.908;7.730;2023-09-07T12:35:09;101319.38;;;24.62;84.79
13709;BME280;54933;51.908;7.730;2023-09-07T12:37:37;101328.34;;;24.62;84.73
13709;BME280;54933;51.908;7.730;2023-09-07T12:40:03;101329.19;;;24.63;84.77
13709;BME280;54933;51.908;7.730;2023-09-07T12:42:42;101321.88;;;24.63;84.60
13709;BME280;54933;51.908;7.730;2023-09-07T12:45:09;101318.91;;;24.65;84.78
13709;BME280;54933;51.908;7.730;2023-09-07T12:47:34;101320.78;;;24.64;84.65